createdAt,value
2022-10-15T00:03:38.650Z,79.10
2022-10-15T00:08:42.504Z,75.20
2022-10-15T00:13:46.959Z,100.50
2022-10-15T00:18:52.105Z,62.40
2022-10-15T00:23:55.956Z,58.20
2022-10-15T00:29:03.481Z,57.80
2022-10-15T00:34:06.433Z,62.40
2022-10-15T00:39:09.344Z,52.80
2022-10-15T00:44:21.461Z,56.00
2022-10-15T00:49:26.348Z,63.70
2022-10-15T00:54:34.953Z,54.70
2022-10-15T00:59:43.483Z,55.90
2022-10-15T01:04:47.965Z,53.00
2022-10-15T01:09:51.156Z,59.60
2022-10-15T01:15:09.246Z,53.50
2022-10-15T01:20:36.841Z,50.40
2022-10-15T01:25:49.008Z,50.30
2022-10-15T01:31:02.628Z,44.70
2022-10-15T01:36:30.284Z,50.40
2022-10-15T01:41:52.772Z,46.30
2022-10-15T01:47:05.043Z,54.10
2022-10-15T01:52:18.669Z,47.20
2022-10-15T01:57:25.588Z,46.00
2022-10-15T02:02:28.755Z,42.70
2022-10-15T02:07:55.977Z,44.30
2022-10-15T02:13:16.759Z,37.90
2022-10-15T02:18:29.609Z,40.20
2022-10-15T02:23:54.507Z,39.90
2022-10-15T02:29:00.906Z,39.10
2022-10-15T02:34:07.913Z,40.00
2022-10-15T02:39:17.448Z,40.00
2022-10-15T02:44:20.992Z,44.00
2022-10-15T02:54:26.821Z,48.40
2022-10-15T02:59:29.747Z,45.40
2022-10-15T03:04:32.643Z,51.40
2022-10-15T03:09:35.556Z,51.10
2022-10-15T03:14:38.500Z,54.30
2022-10-15T03:19:41.438Z,62.10
2022-10-15T03:24:44.336Z,65.50
2022-10-15T03:29:47.233Z,62.00
2022-10-15T03:34:50.164Z,47.50
2022-10-15T03:39:53.109Z,49.00
2022-10-15T03:44:56.007Z,53.90
2022-10-15T03:49:58.907Z,51.50
2022-10-15T03:55:01.808Z,53.90
2022-10-15T04:00:07.804Z,55.00
2022-10-15T04:05:11.257Z,57.40
2022-10-15T04:10:14.407Z,60.80
2022-10-15T04:15:17.446Z,57.10
2022-10-15T04:20:20.490Z,63.40
2022-10-15T04:25:23.427Z,56.90
2022-10-15T04:30:26.460Z,56.30
2022-10-15T04:35:29.638Z,60.00
2022-10-15T04:40:32.527Z,114.10
2022-10-15T04:45:35.443Z,81.30
2022-10-15T04:50:38.363Z,73.30
2022-10-15T04:55:41.271Z,70.80
2022-10-15T05:00:44.152Z,69.20
2022-10-15T05:05:47.039Z,67.90
2022-10-15T05:10:49.996Z,73.70
2022-10-15T05:15:52.903Z,68.30
2022-10-15T05:20:55.819Z,68.90
2022-10-15T05:26:06.109Z,70.90
2022-10-15T05:31:16.175Z,65.00
2022-10-15T05:36:24.629Z,67.30
2022-10-15T05:41:29.633Z,76.60
2022-10-15T05:46:32.580Z,72.40
2022-10-15T05:51:35.501Z,80.30
2022-10-15T05:56:38.840Z,72.70
2022-10-15T06:01:41.803Z,77.70
2022-10-15T06:06:44.772Z,72.70
2022-10-15T06:11:47.921Z,68.80
2022-10-15T06:16:50.956Z,73.20
2022-10-15T06:21:53.840Z,69.20
2022-10-15T06:27:00.135Z,66.80
2022-10-15T06:32:03.148Z,69.30
2022-10-15T06:37:06.171Z,61.70
2022-10-15T06:42:09.405Z,60.80
2022-10-15T06:47:12.324Z,55.70
2022-10-15T06:52:15.972Z,56.80
2022-10-15T07:02:22.181Z,55.30
2022-10-15T07:07:25.389Z,62.90
2022-10-15T07:12:28.288Z,63.60
2022-10-15T07:17:31.737Z,75.20
2022-10-15T07:27:39.193Z,52.60
2022-10-15T07:32:44.470Z,53.70
2022-10-15T07:37:50.831Z,46.00
2022-10-15T07:42:55.968Z,34.70
2022-10-15T07:47:58.900Z,42.20
2022-10-15T07:53:01.849Z,43.90
2022-10-15T07:58:08.248Z,40.70
2022-10-15T08:03:11.291Z,41.80
2022-10-15T08:08:14.207Z,38.50
2022-10-15T08:13:17.147Z,36.60
2022-10-15T08:18:20.094Z,38.50
2022-10-15T08:23:22.986Z,40.60
2022-10-15T08:28:26.069Z,37.30
2022-10-15T08:33:29.680Z,39.30
2022-10-15T08:38:32.713Z,33.00
2022-10-15T08:43:43.495Z,38.90
2022-10-15T08:48:54.403Z,33.90
2022-10-15T08:54:02.255Z,35.30
2022-10-15T08:59:47.657Z,31.60
2022-10-15T09:05:01.356Z,31.20
2022-10-15T09:10:55.387Z,34.80
2022-10-15T09:16:20.294Z,30.80
2022-10-15T09:21:27.975Z,24.60
2022-10-15T09:27:12.885Z,30.70
2022-10-15T09:32:22.247Z,26.30
2022-10-15T09:37:38.996Z,27.90
2022-10-15T09:42:44.866Z,30.30
2022-10-15T09:47:47.870Z,26.70
2022-10-15T09:53:01.012Z,25.40
2022-10-15T10:03:15.906Z,27.70
2022-10-15T10:08:24.560Z,28.20
2022-10-15T10:13:59.162Z,24.30
2022-10-15T10:19:12.885Z,25.00
2022-10-15T10:24:25.256Z,27.00
2022-10-15T10:29:33.918Z,26.40
2022-10-15T10:34:37.653Z,25.40
2022-10-15T10:39:43.275Z,30.60
2022-10-15T10:44:47.019Z,31.70
2022-10-15T10:49:56.100Z,28.50
2022-10-15T10:55:20.283Z,27.00
2022-10-15T11:00:37.075Z,28.20
2022-10-15T11:05:41.864Z,32.60
2022-10-15T11:11:12.810Z,26.00
2022-10-15T11:16:36.487Z,25.60
2022-10-15T11:22:02.539Z,26.20
2022-10-15T11:27:20.056Z,27.90
2022-10-15T11:33:06.904Z,25.30
2022-10-15T11:38:31.800Z,27.00
2022-10-15T11:44:21.236Z,27.30
2022-10-15T11:49:44.497Z,25.30
2022-10-15T11:55:32.464Z,29.30
2022-10-15T12:00:43.013Z,27.90
2022-10-15T12:05:53.499Z,29.90
2022-10-15T12:11:27.419Z,28.80
2022-10-15T12:16:41.668Z,27.00
2022-10-15T12:22:06.875Z,29.20
2022-10-15T12:27:34.697Z,23.70
2022-10-15T12:32:48.943Z,30.50
2022-10-15T12:37:52.320Z,32.70
2022-10-15T12:48:04.310Z,32.10
2022-10-15T12:53:33.287Z,27.70
2022-10-15T12:58:46.463Z,28.50
2022-10-15T13:03:52.379Z,36.60
2022-10-15T13:09:19.133Z,31.20
2022-10-15T13:14:28.130Z,31.40
2022-10-15T13:19:39.488Z,35.40
2022-10-15T13:24:45.711Z,29.00
2022-10-15T13:30:18.041Z,34.10
2022-10-15T13:35:33.439Z,31.50
2022-10-15T13:40:38.354Z,29.50
2022-10-15T13:45:46.990Z,31.10
2022-10-15T13:51:01.800Z,29.90
2022-10-15T13:56:25.311Z,28.70
2022-10-15T14:01:30.668Z,28.50
2022-10-15T14:06:38.243Z,29.20
2022-10-15T14:11:41.199Z,26.90
2022-10-15T14:16:48.218Z,31.90
2022-10-15T14:21:53.003Z,31.90
2022-10-15T14:27:02.330Z,33.00
2022-10-15T14:32:26.066Z,31.60
2022-10-15T14:37:35.979Z,32.10
2022-10-15T14:42:39.856Z,35.50
2022-10-15T14:47:53.728Z,33.30
2022-10-15T14:52:58.608Z,34.20
2022-10-15T14:58:08.716Z,32.50
2022-10-15T15:03:19.943Z,32.30
2022-10-15T15:08:24.818Z,31.00
2022-10-15T15:13:31.539Z,37.80
2022-10-15T15:18:34.688Z,36.70
2022-10-15T15:23:37.646Z,33.80
2022-10-15T15:28:40.656Z,38.70
2022-10-15T15:33:43.600Z,41.50
2022-10-15T15:38:46.692Z,37.20
2022-10-15T15:43:50.693Z,44.30
2022-10-15T15:48:53.556Z,38.40
2022-10-15T15:53:57.186Z,39.30
2022-10-15T15:59:00.099Z,42.80
2022-10-15T16:04:03.007Z,43.00
2022-10-15T16:09:06.197Z,79.20
2022-10-15T16:14:09.502Z,275.10
2022-10-15T16:24:15.293Z,78.60
2022-10-15T16:29:18.206Z,59.70
2022-10-15T16:34:21.160Z,61.30
2022-10-15T16:39:24.055Z,60.80
2022-10-15T16:44:26.981Z,46.20
2022-10-15T16:49:29.855Z,54.30
2022-10-15T16:54:32.775Z,35.20
2022-10-15T16:59:35.682Z,39.40
2022-10-15T17:04:38.584Z,46.80
2022-10-15T17:09:41.823Z,49.80
2022-10-15T17:19:53.933Z,50.20
2022-10-15T17:24:56.824Z,41.30
2022-10-15T17:29:59.747Z,43.00
2022-10-15T17:35:04.336Z,39.20
2022-10-15T17:40:08.481Z,40.40
2022-10-15T17:45:11.948Z,37.20
2022-10-15T17:50:14.992Z,32.50
2022-10-15T17:55:18.076Z,35.50
2022-10-15T18:00:20.991Z,38.10
2022-10-15T18:05:23.892Z,38.60
2022-10-15T18:10:26.986Z,37.20
2022-10-15T18:15:31.494Z,39.00
2022-10-15T18:20:44.353Z,49.70
2022-10-15T18:25:47.793Z,75.50
2022-10-15T18:30:50.679Z,113.20
2022-10-15T18:35:54.055Z,131.60
2022-10-15T18:46:02.163Z,144.50
2022-10-15T18:51:09.741Z,134.90
2022-10-15T18:56:13.977Z,125.90
2022-10-15T19:01:26.064Z,145.00
2022-10-15T19:06:34.896Z,175.20
2022-10-15T19:11:39.337Z,132.50
2022-10-15T19:16:43.560Z,113.70
2022-10-15T19:21:48.462Z,136.50
2022-10-15T19:26:52.610Z,116.60
2022-10-15T19:31:56.906Z,99.30
2022-10-15T19:36:59.826Z,97.30
2022-10-15T19:42:03.123Z,75.30
2022-10-15T19:47:06.032Z,62.20
2022-10-15T19:52:08.906Z,59.90
2022-10-15T19:57:11.895Z,52.40
2022-10-15T20:02:14.972Z,49.80
2022-10-15T20:07:17.895Z,47.70
2022-10-15T20:12:20.805Z,52.10
2022-10-15T20:17:24.108Z,54.90
2022-10-15T20:27:30.620Z,47.40
2022-10-15T20:32:36.034Z,46.40
2022-10-15T20:37:40.475Z,55.20
2022-10-15T20:42:43.366Z,51.10
2022-10-15T20:47:51.728Z,52.10
2022-10-15T20:52:57.073Z,50.80
2022-10-15T20:58:00.102Z,51.80
2022-10-15T21:03:03.009Z,53.90
2022-10-15T21:08:06.124Z,47.00
2022-10-15T21:13:09.134Z,53.80
2022-10-15T21:18:12.035Z,50.60
2022-10-15T21:23:15.014Z,44.50
2022-10-15T21:28:18.006Z,45.90
2022-10-15T21:33:21.006Z,45.80
2022-10-15T21:38:23.997Z,45.90
2022-10-15T21:43:28.548Z,41.60
2022-10-15T21:48:31.558Z,45.60
2022-10-15T21:53:35.944Z,38.40
2022-10-15T21:58:41.289Z,41.90
2022-10-15T22:03:45.921Z,43.90
2022-10-15T22:08:49.188Z,38.80
2022-10-15T22:13:56.618Z,35.70
2022-10-15T22:18:59.949Z,40.30
2022-10-15T22:24:07.421Z,45.80
2022-10-15T22:29:18.555Z,42.80
2022-10-15T22:34:23.002Z,40.00
2022-10-15T22:39:25.890Z,38.00
2022-10-15T22:44:28.830Z,39.00
2022-10-15T22:49:31.717Z,45.40
2022-10-15T22:54:34.830Z,39.50
2022-10-15T22:59:37.863Z,38.60
2022-10-15T23:04:40.814Z,42.50
2022-10-15T23:09:43.729Z,43.50
2022-10-15T23:14:48.006Z,37.70
2022-10-15T23:19:50.907Z,41.00
2022-10-15T23:24:54.396Z,39.80
2022-10-15T23:35:20.052Z,38.20
2022-10-15T23:40:22.942Z,44.40
2022-10-15T23:45:25.847Z,37.30
2022-10-15T23:50:35.781Z,39.90
2022-10-15T23:55:40.156Z,37.70
